Time;durP1;ratioP1;P1;durP2;ratioP2;P2;SDS_P1;SDS_P2;PMS_P1;PMS_P2;Temp;Humidity;BMP_temperature;BMP_pressure;BME280_temperature;BME280_humidity;BME280_pressure;Samples;Min_cycle;Max_cycle;Signal;HPM_P1;HPM_P2
2021/04/09 00:01:34;;;;;;;76.82;42.38;;;51.40;2227.20;;;;;;4978344;28;20022;-79
2021/04/09 00:04:00;;;;;;;95.47;51.45;;;51.50;2227.20;;;;;;4995389;28;20023;-75
2021/04/09 00:06:26;;;;;;;60.33;34.40;;;51.50;2227.20;;;;;;4995913;28;20509;-85
2021/04/09 00:08:52;;;;;;;98.25;48.53;;;51.50;2227.20;;;;;;4978909;28;20031;-86
2021/04/09 00:11:18;;;;;;;85.20;44.28;;;51.50;2227.20;;;;;;4977864;28;20489;-86
2021/04/09 00:13:44;;;;;;;56.72;30.35;;;51.60;2227.20;;;;;;4977426;28;20025;-85
2021/04/09 00:16:09;;;;;;;60.75;32.58;;;51.80;2227.20;;;;;;4977927;28;20124;-82
2021/04/09 00:18:35;;;;;;;39.33;21.60;;;51.30;2227.20;;;;;;4994638;28;20035;-86
2021/04/09 00:21:01;;;;;;;34.88;21.42;;;51.30;2227.20;;;;;;4978288;28;20030;-85
2021/04/09 00:23:27;;;;;;;46.70;26.88;;;51.20;2227.20;;;;;;4976741;28;20038;-85
2021/04/09 00:25:53;;;;;;;52.72;25.23;;;51.20;2227.20;;;;;;4978300;28;20093;-84
2021/04/09 00:28:19;;;;;;;63.90;33.70;;;26.50;2201.60;;;;;;4977118;28;20030;-85
2021/04/09 00:30:45;;;;;;;51.22;27.70;;;51.20;2227.20;;;;;;4977888;28;20530;-87
2021/04/09 00:33:11;;;;;;;60.30;31.95;;;51.30;2227.20;;;;;;4977962;28;20377;-85
2021/04/09 00:35:37;;;;;;;48.50;28.52;;;51.30;2227.20;;;;;;4978059;28;20034;-83
2021/04/09 00:38:02;;;;;;;46.35;27.27;;;51.40;2227.20;;;;;;4977479;28;20458;-85
2021/04/09 00:40:28;;;;;;;40.72;22.88;;;51.50;2227.20;;;;;;4977981;28;20030;-87
2021/04/09 00:42:54;;;;;;;47.25;22.33;;;51.40;2227.20;;;;;;4977900;28;20026;-84
2021/04/09 00:45:20;;;;;;;50.63;26.15;;;51.60;2227.20;;;;;;4977578;28;20117;-85
2021/04/09 00:47:46;;;;;;;76.20;37.05;;;51.50;2227.20;;;;;;4977962;28;20049;-84
2021/04/09 00:50:14;;;;;;;74.43;38.75;;;51.70;2227.20;;;;;;4977797;28;20033;-85
2021/04/09 00:52:41;;;;;;;77.22;38.30;;;51.70;2227.20;;;;;;4994207;28;20066;-83
2021/04/09 00:55:09;;;;;;;73.47;36.42;;;51.80;2227.20;;;;;;4977660;28;20117;-84
2021/04/09 00:57:36;;;;;;;61.13;33.85;;;51.80;2227.20;;;;;;4977514;28;20027;-84
2021/04/09 01:00:06;;;;;;;86.35;49.38;;;51.90;2227.20;;;;;;4977585;28;20034;-84
2021/04/09 01:02:32;;;;;;;89.30;48.80;;;51.80;2227.20;;;;;;4977562;28;20053;-84
2021/04/09 01:04:59;;;;;;;71.03;38.67;;;51.80;2227.20;;;;;;4977953;28;20450;-83
2021/04/09 01:07:25;;;;;;;61.30;33.13;;;51.90;2227.20;;;;;;4977432;28;20034;-85
2021/04/09 01:09:53;;;;;;;48.70;28.45;;;51.90;2227.20;;;;;;4978057;28;20064;-85
2021/04/09 01:12:19;;;;;;;39.28;23.25;;;52.00;2227.20;;;;;;4977096;28;20190;-86
2021/04/09 01:14:46;;;;;;;38.65;20.60;;;51.90;2227.20;;;;;;4977508;28;20121;-87
2021/04/09 01:17:33;;;;;;;31.80;18.65;;;52.00;2227.20;;;;;;4977360;28;20026;-85
2021/04/09 01:20:26;;;;;;;35.97;19.40;;;52.00;2227.20;;;;;;4977492;28;20359;-84
2021/04/09 01:23:04;;;;;;;;;;;52.00;2227.20;;;;;;4978816;28;20027;-84
2021/04/09 01:25:57;;;;;;;33.67;18.52;;;52.00;2227.20;;;;;;4977354;28;19905;-85
2021/04/09 01:28:30;;;;;;;34.45;16.92;;;52.00;2227.20;;;;;;4977096;28;20066;-85
2021/04/09 01:31:14;;;;;;;25.42;14.38;;;52.10;2227.20;;;;;;4977213;28;20026;-84
2021/04/09 01:33:45;;;;;;;39.58;20.30;;;76.80;2227.20;;;;;;4977119;28;20026;-84
2021/04/09 01:36:38;;;;;;;37.13;19.52;;;76.90;2227.20;;;;;;4977564;28;20026;-84
2021/04/09 01:39:24;;;;;;;38.08;22.48;;;76.80;2227.20;;;;;;4993565;28;20042;-85
2021/04/09 01:41:52;;;;;;;37.80;21.17;;;76.90;2227.20;;;;;;4976954;28;20042;-84
2021/04/09 01:44:23;;;;;;;29.10;18.38;;;76.90;2227.20;;;;;;4976072;28;20466;-86
2021/04/09 01:46:52;;;;;;;28.75;15.02;;;76.90;2227.20;;;;;;4977246;28;20466;-84
2021/04/09 01:49:20;;;;;;;30.17;17.08;;;76.80;2227.20;;;;;;4976106;28;20030;-84
2021/04/09 01:51:48;;;;;;;40.63;21.35;;;52.00;2227.20;;;;;;4994449;28;20026;-84
2021/04/09 01:54:16;;;;;;;47.17;23.52;;;52.00;2227.20;;;;;;4976746;28;20026;-86
2021/04/09 01:56:44;;;;;;;36.67;20.83;;;51.80;2227.20;;;;;;4976995;28;20022;-82
2021/04/09 01:59:12;;;;;;;38.03;17.40;;;51.80;2227.20;;;;;;4977121;28;20038;-85
2021/04/09 02:01:39;;;;;;;40.67;18.55;;;51.80;2227.20;;;;;;4976728;28;20469;-84
2021/04/09 02:04:05;;;;;;;32.53;16.90;;;51.90;2227.20;;;;;;4979966;28;20081;-83
2021/04/09 02:06:34;;;;;;;35.20;14.98;;;51.80;2227.20;;;;;;4980763;28;20030;-86
2021/04/09 02:09:01;;;;;;;26.30;14.27;;;51.60;2227.20;;;;;;4980997;28;20081;-85
2021/04/09 02:11:28;;;;;;;24.33;13.18;;;51.40;2227.20;;;;;;4981009;28;20026;-84
2021/04/09 02:13:55;;;;;;;29.55;12.95;;;51.30;2227.20;;;;;;4979522;28;20033;-85
2021/04/09 02:16:22;;;;;;;13.88;7.93;;;51.30;2227.20;;;;;;4981068;28;20100;-86
2021/04/09 02:18:50;;;;;;;13.75;7.40;;;51.50;2227.20;;;;;;4979498;28;20065;-83
2021/04/09 02:21:16;;;;;;;10.02;7.10;;;51.80;2227.20;;;;;;4996713;28;20039;-83
2021/04/09 02:23:45;;;;;;;13.13;6.20;;;51.90;2227.20;;;;;;4979390;28;20026;-84
2021/04/09 02:26:11;;;;;;;11.50;6.75;;;52.00;2227.20;;;;;;4980340;28;20033;-84
2021/04/09 02:28:38;;;;;;;10.40;5.65;;;52.10;2227.20;;;;;;4979696;28;20501;-85
2021/04/09 02:31:11;;;;;;;10.73;5.45;;;76.80;2227.20;;;;;;4979821;28;20022;-82
2021/04/09 02:33:38;;;;;;;8.63;5.50;;;77.40;2227.20;;;;;;4980423;28;20037;-85
2021/04/09 02:36:12;;;;;;;11.63;6.15;;;77.00;2227.20;;;;;;4964316;28;20054;-82
2021/04/09 02:38:41;;;;;;;10.38;5.72;;;77.00;2227.20;;;;;;4980516;28;20034;-84
2021/04/09 02:41:08;;;;;;;14.88;8.02;;;77.10;2227.20;;;;;;4979975;28;20084;-85
2021/04/09 02:43:34;;;;;;;11.07;6.18;;;77.20;2227.20;;;;;;4979944;28;20058;-85
2021/04/09 02:46:00;;;;;;;8.07;5.07;;;77.20;2227.20;;;;;;4980458;28;20030;-85
2021/04/09 02:48:34;;;;;;;12.63;5.95;;;77.20;2227.20;;;;;;4979922;28;20382;-85
2021/04/09 02:51:05;;;;;;;8.63;6.15;;;77.20;2227.20;;;;;;4980205;28;20038;-84
2021/04/09 02:53:34;;;;;;;12.25;6.60;;;77.30;2227.20;;;;;;4979967;28;20113;-84
2021/04/09 02:56:03;;;;;;;12.25;6.93;;;77.40;2227.20;;;;;;4980113;28;20121;-85
2021/04/09 02:58:31;;;;;;;14.07;6.13;;;77.10;2227.20;;;;;;4979940;28;20038;-86
2021/04/09 03:00:57;;;;;;;10.93;6.50;;;77.40;2227.20;;;;;;4980602;28;20355;-86
2021/04/09 03:03:23;;;;;;;11.25;7.20;;;77.50;2227.20;;;;;;4979888;28;20121;-85
2021/04/09 03:05:51;;;;;;;12.40;7.97;;;77.50;2227.20;;;;;;4979842;28;20022;-87
2021/04/09 03:08:18;;;;;;;16.75;6.85;;;77.50;2227.20;;;;;;4997551;28;20462;-86
2021/04/09 03:10:44;;;;;;;13.10;7.18;;;77.60;2227.20;;;;;;4979802;28;20462;-86
2021/04/09 03:13:11;;;;;;;9.93;7.35;;;77.50;2227.20;;;;;;4978280;28;20134;-86
2021/04/09 03:15:44;;;;;;;13.30;7.22;;;77.50;2227.20;;;;;;4979219;28;20132;-86
2021/04/09 03:18:12;;;;;;;10.80;6.25;;;77.50;2227.20;;;;;;4996339;28;20034;-86
2021/04/09 03:20:39;;;;;;;12.48;7.03;;;77.50;2227.20;;;;;;4979409;28;20034;-87
2021/04/09 03:23:08;;;;;;;12.32;7.13;;;77.60;2227.20;;;;;;4978521;28;20390;-85
2021/04/09 03:25:36;;;;;;;19.80;11.20;;;77.50;2227.20;;;;;;4979562;28;20054;-87
2021/04/09 03:28:05;;;;;;;23.50;14.30;;;77.40;2227.20;;;;;;4978777;28;20537;-87
2021/04/09 03:30:31;;;;;;;20.25;12.55;;;77.20;2227.20;;;;;;4979383;28;20057;-86
2021/04/09 03:32:57;;;;;;;60.80;30.35;;;77.00;2227.20;;;;;;4979190;28;20054;-87
2021/04/09 03:35:22;;;;;;;53.10;29.05;;;52.00;2227.20;;;;;;4979587;28;20026;-87
2021/04/09 03:37:48;;;;;;;40.58;21.13;;;51.80;2227.20;;;;;;4978953;28;20118;-86
2021/04/09 03:40:15;;;;;;;32.63;18.02;;;51.90;2227.20;;;;;;4979041;28;20065;-86
2021/04/09 03:42:41;;;;;;;29.52;18.38;;;52.00;2227.20;;;;;;4979145;28;20121;-86
2021/04/09 03:45:08;;;;;;;29.02;15.95;;;52.00;2227.20;;;;;;4977491;28;20469;-86
2021/04/09 03:47:34;;;;;;;37.33;22.27;;;52.00;2227.20;;;;;;4978682;28;20030;-84
2021/04/09 03:50:00;;;;;;;28.30;17.50;;;51.90;2227.20;;;;;;4978208;28;20033;-86
2021/04/09 03:52:26;;;;;;;29.73;15.32;;;51.90;2227.20;;;;;;4979443;28;20030;-86
2021/04/09 03:54:52;;;;;;;25.17;15.57;;;51.90;2227.20;;;;;;4978684;28;20489;-86
2021/04/09 03:57:18;;;;;;;25.20;14.77;;;51.80;2227.20;;;;;;4979545;28;20041;-87
2021/04/09 03:59:44;;;;;;;31.58;16.25;;;51.80;2227.20;;;;;;4977144;28;20026;-85
2021/04/09 04:02:10;;;;;;;29.92;17.50;;;52.00;2227.20;;;;;;4978096;28;20457;-85
2021/04/09 04:04:36;;;;;;;27.13;16.40;;;51.80;2227.20;;;;;;4978190;28;20086;-86
2021/04/09 04:07:02;;;;;;;27.70;15.20;;;51.80;2227.20;;;;;;4978731;28;20023;-85
2021/04/09 04:09:29;;;;;;;24.90;15.07;;;51.70;2227.20;;;;;;4978309;28;20030;-85
2021/04/09 04:11:54;;;;;;;26.58;16.63;;;51.70;2227.20;;;;;;4996095;28;20055;-81
2021/04/09 04:14:20;;;;;;;26.52;17.08;;;51.70;2227.20;;;;;;4977290;28;20034;-84
2021/04/09 04:16:46;;;;;;;28.70;17.73;;;51.80;2227.20;;;;;;4978359;28;20113;-86
2021/04/09 04:19:13;;;;;;;36.88;20.52;;;51.80;2227.20;;;;;;4977348;28;20124;-84
2021/04/09 04:21:40;;;;;;;72.28;36.65;;;51.80;2227.20;;;;;;4978109;28;20057;-84
2021/04/09 04:24:06;;;;;;;65.25;37.30;;;51.80;2227.20;;;;;;4978330;28;20188;-85
2021/04/09 04:26:32;;;;;;;53.13;30.15;;;51.90;2227.20;;;;;;4977361;28;20026;-86
2021/04/09 04:28:58;;;;;;;43.35;23.80;;;51.80;2227.20;;;;;;4995525;28;20104;-84
2021/04/09 04:31:23;;;;;;;40.92;21.25;;;51.90;2227.20;;;;;;4978493;28;20034;-85
2021/04/09 04:33:49;;;;;;;39.60;22.30;;;51.80;2227.20;;;;;;4978203;28;20065;-87
2021/04/09 04:36:15;;;;;;;46.83;26.42;;;51.90;2227.20;;;;;;4978155;28;20032;-86
2021/04/09 04:38:41;;;;;;;77.20;42.05;;;52.00;2227.20;;;;;;4978029;28;20039;-85
2021/04/09 04:41:07;;;;;;;62.85;38.05;;;52.00;2227.20;;;;;;4978563;28;20077;-83
2021/04/09 04:43:32;;;;;;;57.63;31.38;;;51.90;2227.20;;;;;;4995204;28;20037;-86
2021/04/09 04:45:58;;;;;;;64.63;34.83;;;52.00;2227.20;;;;;;4978119;28;20437;-85
2021/04/09 04:48:24;;;;;;;63.63;36.58;;;52.00;2227.20;;;;;;4978093;28;20117;-84
2021/04/09 04:50:50;;;;;;;79.40;43.08;;;52.10;2227.20;;;;;;4977913;28;20026;-86
2021/04/09 04:53:16;;;;;;;87.25;49.78;;;52.00;2227.20;;;;;;4977993;28;20549;-85
2021/04/09 04:55:42;;;;;;;81.03;48.83;;;51.80;2227.20;;;;;;4995364;28;20030;-85
2021/04/09 04:58:07;;;;;;;65.85;39.13;;;51.80;2227.20;;;;;;4995470;28;20066;-85
2021/04/09 05:00:33;;;;;;;66.78;36.88;;;51.70;2227.20;;;;;;4978617;28;20411;-85
2021/04/09 05:02:59;;;;;;;67.55;38.80;;;51.50;2227.20;;;;;;4978291;28;20022;-85
2021/04/09 05:05:25;;;;;;;80.60;44.28;;;51.60;2227.20;;;;;;4977295;28;20030;-83
2021/04/09 05:07:50;;;;;;;62.65;40.08;;;51.80;2227.20;;;;;;4977638;28;20038;-86
2021/04/09 05:10:16;;;;;;;78.68;45.75;;;51.70;2227.20;;;;;;4977316;28;20030;-85
2021/04/09 05:12:42;;;;;;;76.60;43.92;;;51.70;2227.20;;;;;;4977300;28;20046;-85
2021/04/09 05:15:08;;;;;;;75.93;42.58;;;51.80;2227.20;;;;;;4977648;28;20034;-87
2021/04/09 05:17:38;;;;;;;60.83;35.70;;;52.00;2227.20;;;;;;4977101;28;20085;-85
2021/04/09 05:20:05;;;;;;;49.30;29.23;;;52.10;2227.20;;;;;;4977577;28;20034;-86
2021/04/09 05:22:31;;;;;;;41.63;22.60;;;52.10;2227.20;;;;;;4994605;28;20117;-85
2021/04/09 05:24:57;;;;;;;35.95;21.85;;;52.00;2227.20;;;;;;4977318;28;20065;-86
2021/04/09 05:27:23;;;;;;;40.13;26.00;;;52.00;2227.20;;;;;;4977735;28;20030;-84
2021/04/09 05:29:49;;;;;;;42.90;26.63;;;51.90;2227.20;;;;;;4977476;28;20137;-86
2021/04/09 05:32:14;;;;;;;41.25;25.80;;;52.00;2227.20;;;;;;4994170;28;20479;-86
2021/04/09 05:34:41;;;;;;;37.58;25.55;;;52.10;2227.20;;;;;;4977467;28;20113;-84
2021/04/09 05:37:07;;;;;;;32.53;21.50;;;52.10;2227.20;;;;;;4977332;28;20023;-85
2021/04/09 05:39:33;;;;;;;36.50;22.42;;;76.80;2227.20;;;;;;4980545;28;20027;-84
2021/04/09 05:41:59;;;;;;;31.63;22.77;;;77.00;2227.20;;;;;;4981371;28;20037;-85
2021/04/09 05:44:25;;;;;;;45.80;27.10;;;77.10;2227.20;;;;;;4981318;28;20027;-85
2021/04/09 05:46:52;;;;;;;39.72;25.17;;;77.20;2227.20;;;;;;4980888;28;20421;-86
2021/04/09 05:49:18;;;;;;;45.78;28.52;;;77.30;2227.20;;;;;;4981318;28;20103;-86
2021/04/09 05:51:44;;;;;;;50.97;32.40;;;77.50;2227.20;;;;;;4981281;28;20131;-85
2021/04/09 05:54:10;;;;;;;56.60;32.25;;;77.50;2227.20;;;;;;4980998;28;20109;-85
2021/04/09 05:56:35;;;;;;;51.95;33.33;;;77.60;2227.20;;;;;;4981388;28;20026;-85
2021/04/09 05:59:01;;;;;;;63.78;36.67;;;77.60;2227.20;;;;;;4998374;28;20038;-87
2021/04/09 06:01:28;;;;;;;109.68;58.13;;;77.60;2227.20;;;;;;4980960;28;20037;-86
2021/04/09 06:03:55;;;;;;;229.38;117.03;;;77.70;2227.20;;;;;;4998449;28;20038;-86
2021/04/09 06:06:20;;;;;;;93.15;49.53;;;102.60;2227.20;;;;;;4980688;28;20026;-86
2021/04/09 06:08:46;;;;;;;58.85;33.45;;;102.50;2227.20;;;;;;4980872;28;20497;-85
2021/04/09 06:11:12;;;;;;;118.72;69.68;;;102.60;2227.20;;;;;;4980709;28;20381;-86
2021/04/09 06:13:38;;;;;;;57.67;36.35;;;102.70;2227.20;;;;;;4980587;28;20026;-85
2021/04/09 06:16:05;;;;;;;41.72;25.60;;;102.80;2227.20;;;;;;4980761;28;20034;-85
2021/04/09 06:18:31;;;;;;;31.20;20.85;;;102.70;2227.20;;;;;;4980774;28;20034;-85
2021/04/09 06:20:57;;;;;;;44.47;27.48;;;102.70;2227.20;;;;;;4980192;28;20031;-85
2021/04/09 06:23:23;;;;;;;43.17;28.95;;;102.90;2227.20;;;;;;4980705;28;20129;-86
2021/04/09 06:25:49;;;;;;;40.00;23.80;;;102.90;2227.20;;;;;;4998174;28;20058;-85
2021/04/09 06:28:15;;;;;;;32.42;19.77;;;103.00;2227.20;;;;;;4980676;28;20080;-83
2021/04/09 06:30:41;;;;;;;29.05;18.65;;;103.00;2227.20;;;;;;4980554;28;20054;-82
2021/04/09 06:33:07;;;;;;;29.13;17.20;;;103.00;2227.20;;;;;;4980422;28;20082;-82
2021/04/09 06:35:33;;;;;;;33.42;17.27;;;103.20;2227.20;;;;;;4997475;28;20033;-83
2021/04/09 06:37:58;;;;;;;31.98;20.63;;;103.30;2227.20;;;;;;4980305;28;20449;-83
2021/04/09 06:40:26;;;;;;;29.83;19.67;;;103.30;2227.20;;;;;;4980247;28;20027;-83
2021/04/09 06:42:57;;;;;;;23.45;16.13;;;128.00;2252.80;;;;;;4980075;28;20426;-82
2021/04/09 06:45:24;;;;;;;19.42;13.15;;;128.00;2252.80;;;;;;4996227;28;20470;-83
2021/04/09 06:47:53;;;;;;;24.98;14.38;;;128.10;2252.80;;;;;;4980125;28;20121;-82
2021/04/09 06:50:19;;;;;;;21.23;12.75;;;128.20;2252.80;;;;;;4978123;28;20363;-82
2021/04/09 06:52:45;;;;;;;30.63;20.05;;;128.40;2252.80;;;;;;4980008;28;20030;-82
2021/04/09 06:55:11;;;;;;;31.30;21.63;;;128.50;2252.80;;;;;;4979722;28;20596;-82
2021/04/09 06:57:39;;;;;;;30.52;17.67;;;128.70;2227.20;;;;;;4980607;28;20046;-83
2021/04/09 07:00:08;;;;;;;23.80;13.32;;;128.90;2252.80;;;;;;4979688;28;20026;-83
2021/04/09 07:02:35;;;;;;;19.48;12.38;;;153.60;2201.60;;;;;;4980029;28;20022;-82
2021/04/09 07:05:01;;;;;;;18.77;12.00;;;153.80;2201.60;;;;;;4979730;28;20034;-82
2021/04/09 07:07:27;;;;;;;19.98;12.77;;;153.80;2150.40;;;;;;4979594;28;20039;-82
2021/04/09 07:09:52;;;;;;;20.65;13.98;;;153.80;2176.00;;;;;;4996543;28;20023;-81
2021/04/09 07:12:27;;;;;;;25.65;14.38;;;153.90;2201.60;;;;;;4979240;28;20054;-82
2021/04/09 07:15:15;;;;;;;18.65;12.70;;;154.00;2150.40;;;;;;4978774;28;20097;-82
2021/04/09 07:17:48;;;;;;;39.28;25.55;;;154.10;2150.40;;;;;;4979051;28;20034;-81
2021/04/09 07:20:28;;;;;;;30.80;20.92;;;154.10;2150.40;;;;;;4978805;28;20355;-83
2021/04/09 07:22:59;;;;;;;23.70;11.95;;;154.20;2150.40;;;;;;4979606;28;20030;-84
2021/04/09 07:25:30;;;;;;;19.80;12.85;;;154.20;2073.60;;;;;;4979261;28;20061;-84
2021/04/09 07:28:16;;;;;;;17.85;10.93;;;154.40;2073.60;;;;;;4979676;28;20033;-82
2021/04/09 07:30:51;;;;;;;22.65;13.38;;;154.20;2048.00;;;;;;4979213;28;20382;-83
2021/04/09 07:33:20;;;;;;;22.92;15.40;;;154.20;2048.00;;;;;;4979301;28;20038;-82
2021/04/09 07:35:50;;;;;;;23.67;14.25;;;154.30;2048.00;;;;;;4979290;28;20050;-82
2021/04/09 07:38:20;;;;;;;23.70;11.52;;;179.20;2022.40;;;;;;4978929;28;20040;-82
2021/04/09 07:41:01;;;;;;;19.88;13.15;;;179.40;2022.40;;;;;;4979003;28;20030;-84
2021/04/09 07:43:31;;;;;;;18.65;12.43;;;179.50;1971.20;;;;;;4996470;28;20026;-79
2021/04/09 07:45:59;;;;;;;27.45;15.48;;;179.80;1971.20;;;;;;4995815;28;20109;-79
2021/04/09 07:48:34;;;;;;;18.23;10.57;;;179.80;1971.20;;;;;;4978761;28;20034;-80
2021/04/09 07:51:01;;;;;;;15.60;9.85;;;179.90;1868.80;;;;;;4979004;28;20355;-85
2021/04/09 07:53:30;;;;;;;12.75;8.65;;;205.20;1843.20;;;;;;4978455;28;20113;-79
2021/04/09 07:56:09;;;;;;;18.05;11.98;;;180.10;1843.20;;;;;;4995940;28;20113;-81
2021/04/09 07:58:37;;;;;;;16.70;10.65;;;204.80;1843.20;;;;;;4978605;28;20040;-77
2021/04/09 08:01:19;;;;;;;15.57;9.13;;;205.00;1843.20;;;;;;4995542;28;20026;-75
2021/04/09 08:03:45;;;;;;;13.18;7.22;;;205.10;1843.20;;;;;;4996330;28;20026;-74
2021/04/09 08:06:17;;;;;;;20.17;12.80;;;205.00;1715.20;;;;;;4995422;28;20105;-74
2021/04/09 08:08:46;;;;;;;23.33;13.90;;;205.10;1766.40;;;;;;4995459;28;20433;-74
2021/04/09 08:11:32;;;;;;;17.30;9.65;;;205.20;1766.40;;;;;;4995047;28;20430;-74
2021/04/09 08:14:11;;;;;;;25.20;12.02;;;205.40;1740.80;;;;;;4993518;28;20038;-74
2021/04/09 08:16:45;;;;;;;27.13;13.38;;;205.50;1740.80;;;;;;4977957;28;20018;-74
2021/04/09 08:19:16;;;;;;;16.73;9.48;;;205.60;1740.80;;;;;;4994025;28;20033;-74
2021/04/09 08:21:49;;;;;;;8.88;6.25;;;205.60;1766.40;;;;;;4977961;28;20077;-75
2021/04/09 08:24:15;;;;;;;;;;;205.70;1664.00;;;;;;4978013;28;20090;-73
2021/04/09 08:26:41;;;;;;;13.70;8.77;;;230.40;1612.80;;;;;;4977555;28;19941;-75
2021/04/09 08:29:10;;;;;;;12.80;7.85;;;230.50;1689.60;;;;;;4977800;28;20486;-75
2021/04/09 08:31:37;;;;;;;13.73;9.48;;;230.50;1689.60;;;;;;4994932;28;20032;-74
2021/04/09 08:34:03;;;;;;;12.80;7.35;;;230.60;1612.80;;;;;;4977759;28;20048;-74
2021/04/09 08:36:30;;;;;;;10.38;6.40;;;230.70;1561.60;;;;;;4977634;28;20027;-75
2021/04/09 08:38:56;;;;;;;10.05;7.32;;;230.60;1561.60;;;;;;4977845;28;20038;-74
2021/04/09 08:41:23;;;;;;;9.85;6.43;;;230.80;1587.20;;;;;;4975751;28;20482;-75
2021/04/09 08:43:49;;;;;;;10.25;6.60;;;231.10;1612.80;;;;;;4993616;28;20485;-75
2021/04/09 08:46:15;;;;;;;11.02;6.93;;;230.90;1561.60;;;;;;4976556;28;20055;-74
2021/04/09 08:48:42;;;;;;;11.95;6.07;;;230.90;1536.00;;;;;;4974606;28;20026;-74
2021/04/09 08:51:10;;;;;;;21.75;15.45;;;230.90;1536.00;;;;;;4977778;28;20030;-75
2021/04/09 08:53:36;;;;;;;13.50;8.48;;;231.10;1510.40;;;;;;4976128;28;20113;-75
2021/04/09 08:56:03;;;;;;;10.23;7.22;;;231.10;1484.80;;;;;;4994617;28;20022;-78
2021/04/09 08:58:32;;;;;;;14.15;8.75;;;231.30;1484.80;;;;;;4975982;28;20042;-78
2021/04/09 09:01:11;;;;;;;17.60;9.18;;;231.20;1510.40;;;;;;4976565;28;20026;-77
2021/04/09 09:03:36;;;;;;;14.20;7.95;;;256.40;1536.00;;;;;;4976851;28;20030;-77
2021/04/09 09:06:04;;;;;;;16.98;10.52;;;256.50;1484.80;;;;;;4976729;28;20026;-75
2021/04/09 09:08:48;;;;;;;11.73;7.35;;;256.80;1510.40;;;;;;4993013;28;20026;-76
2021/04/09 09:11:34;;;;;;;13.70;7.00;;;256.80;1459.20;;;;;;4977359;28;20118;-75
2021/04/09 09:14:00;;;;;;;14.93;7.95;;;256.50;1459.20;;;;;;4976464;28;20030;-75
2021/04/09 09:16:35;;;;;;;13.70;9.38;;;256.80;1484.80;;;;;;4994186;28;20392;-75
2021/04/09 09:19:02;;;;;;;15.60;8.50;;;256.80;1433.60;;;;;;4994527;28;20537;-76
2021/04/09 09:21:34;;;;;;;12.70;7.90;;;256.70;1433.60;;;;;;4977049;28;20033;-75
2021/04/09 09:24:18;;;;;;;15.45;7.70;;;256.80;1433.60;;;;;;4976748;28;20026;-74
2021/04/09 09:26:46;;;;;;;13.43;8.15;;;281.70;1484.80;;;;;;4977801;28;20135;-75
2021/04/09 09:29:23;;;;;;;10.27;6.47;;;281.80;1484.80;;;;;;4994588;28;20521;-76
2021/04/09 09:31:49;;;;;;;14.35;8.75;;;281.80;1408.00;;;;;;4994625;28;20038;-77
2021/04/09 09:34:20;;;;;;;10.80;7.78;;;282.00;1459.20;;;;;;4994043;28;20030;-77
2021/04/09 09:37:08;;;;;;;15.60;7.65;;;282.00;1459.20;;;;;;4976620;28;20026;-77
2021/04/09 09:39:39;;;;;;;13.40;7.88;;;282.40;1433.60;;;;;;4976858;28;20072;-78
2021/04/09 09:42:25;;;;;;;15.35;9.35;;;307.20;1433.60;;;;;;4992994;28;20041;-74
2021/04/09 09:44:55;;;;;;;13.52;6.50;;;307.60;1408.00;;;;;;4963003;28;20042;-75
2021/04/09 09:47:34;;;;;;;10.68;5.57;;;307.30;1356.80;;;;;;4976835;28;20537;-75
2021/04/09 09:50:04;;;;;;;9.95;5.65;;;307.30;1382.40;;;;;;4993329;28;20374;-75
2021/04/09 09:53:07;;;;;;;16.60;8.90;;;307.50;1356.80;;;;;;4976409;28;20026;-74
2021/04/09 09:55:40;;;;;;;10.38;8.02;;;307.40;1382.40;;;;;;4994309;28;20031;-77
2021/04/09 09:58:26;;;;;;;40.67;29.05;;;282.40;1356.80;;;;;;4993747;28;20038;-75
2021/04/09 10:01:00;;;;;;;7.97;5.68;;;307.30;1382.40;;;;;;4975228;28;20042;-76
2021/04/09 10:03:28;;;;;;;14.20;9.52;;;282.40;1356.80;;;;;;4976712;28;20041;-76
2021/04/09 10:06:08;;;;;;;10.93;6.28;;;282.50;1382.40;;;;;;4993153;28;20037;-76
2021/04/09 10:08:38;;;;;;;8.45;5.43;;;307.30;1382.40;;;;;;4976471;28;20026;-76
2021/04/09 10:11:17;;;;;;;9.93;5.70;;;282.50;1331.20;;;;;;4976537;28;20027;-77
2021/04/09 10:13:44;;;;;;;10.98;5.32;;;282.30;1356.80;;;;;;4975402;28;20038;-77
2021/04/09 10:16:15;;;;;;;8.25;5.95;;;282.50;1305.60;;;;;;4994497;28;20113;-76
2021/04/09 10:18:48;;;;;;;8.35;5.93;;;307.20;1356.80;;;;;;4975612;28;20390;-76
2021/04/09 10:21:24;;;;;;;;;;;282.10;1331.20;;;;;;4993724;28;20023;-76
2021/04/09 10:24:02;;;;;;;11.93;7.68;;;307.30;1331.20;;;;;;4994816;28;19913;-79
2021/04/09 10:26:28;;;;;;;14.48;7.22;;;308.10;1331.20;;;;;;4979879;28;20061;-76
2021/04/09 10:28:54;;;;;;;10.43;6.75;;;332.90;1280.00;;;;;;4980282;28;20030;-76
2021/04/09 10:31:21;;;;;;;11.18;7.78;;;333.30;1305.60;;;;;;4997735;28;20362;-75
2021/04/09 10:33:52;;;;;;;17.15;8.43;;;358.40;1254.40;;;;;;4997247;28;20022;-76
2021/04/09 10:36:27;;;;;;;11.90;8.90;;;358.60;1280.00;;;;;;4997466;28;20410;-76
2021/04/09 10:38:59;;;;;;;7.55;5.03;;;359.00;1203.20;;;;;;4979944;28;20037;-76
2021/04/09 10:41:34;;;;;;;10.00;7.18;;;359.10;1177.60;;;;;;4996954;28;20054;-77
2021/04/09 10:44:01;;;;;;;14.88;10.05;;;359.20;1228.80;;;;;;4980629;28;20446;-77
2021/04/09 10:46:30;;;;;;;11.52;8.50;;;359.00;1254.40;;;;;;4996586;28;20049;-76
2021/04/09 10:49:16;;;;;;;12.05;8.25;;;358.60;1280.00;;;;;;4997337;28;20030;-76
2021/04/09 10:51:50;;;;;;;9.40;6.07;;;333.50;1254.40;;;;;;4980034;28;20470;-77
2021/04/09 10:54:18;;;;;;;16.42;9.90;;;332.90;1228.80;;;;;;4979670;28;20034;-76
2021/04/09 10:56:53;;;;;;;16.35;10.35;;;333.70;1254.40;;;;;;4996658;28;20486;-76
2021/04/09 10:59:24;;;;;;;17.33;10.18;;;358.80;1203.20;;;;;;4996954;28;20100;-76
2021/04/09 11:01:50;;;;;;;12.07;7.70;;;359.30;1228.80;;;;;;4996682;28;20086;-76
2021/04/09 11:04:16;;;;;;;8.77;5.85;;;384.30;1177.60;;;;;;4979394;28;20026;-76
2021/04/09 11:06:58;;;;;;;10.15;6.32;;;384.40;1100.80;;;;;;4995571;28;20034;-76
2021/04/09 11:09:41;;;;;;;16.63;10.63;;;384.60;1152.00;;;;;;4996490;28;20033;-77
2021/04/09 11:12:24;;;;;;;14.60;9.40;;;409.70;1126.40;;;;;;4976007;28;20379;-77
2021/04/09 11:15:06;;;;;;;33.45;22.15;;;410.30;1126.40;;;;;;4959930;28;20118;-76
2021/04/09 11:17:33;;;;;;;39.03;25.65;;;410.40;1100.80;;;;;;4977428;28;20366;-76
2021/04/09 11:20:01;;;;;;;17.63;12.20;;;410.50;1126.40;;;;;;4977132;28;20086;-76
2021/04/09 11:22:29;;;;;;;10.95;7.38;;;410.20;1075.20;;;;;;4976618;28;20057;-76
2021/04/09 11:25:01;;;;;;;14.32;11.05;;;409.90;1049.60;;;;;;4975860;28;20049;-75
2021/04/09 11:27:36;;;;;;;15.90;12.15;;;409.70;1024.00;;;;;;4975736;28;20471;-77
2021/04/09 11:30:13;;;;;;;8.85;5.70;;;409.60;1075.20;;;;;;4976975;28;20023;-74
2021/04/09 11:32:48;;;;;;;17.45;9.60;;;409.80;1075.20;;;;;;4975651;28;20034;-74
2021/04/09 11:35:15;;;;;;;11.07;7.43;;;409.80;1024.00;;;;;;4976380;28;20030;-74
2021/04/09 11:37:52;;;;;;;10.15;5.88;;;409.90;1100.80;;;;;;4959423;28;20442;-74
2021/04/09 11:40:36;;;;;;;11.70;6.75;;;410.40;1049.60;;;;;;4960326;28;20063;-74
2021/04/09 11:43:05;;;;;;;9.10;5.57;;;410.00;1024.00;;;;;;4976407;28;20026;-73
2021/04/09 11:45:41;;;;;;;9.18;6.72;;;409.70;1024.00;;;;;;4976946;28;20392;-73
2021/04/09 11:48:27;;;;;;;15.18;9.18;;;409.80;1024.00;;;;;;4974877;28;20050;-74
2021/04/09 11:51:14;;;;;;;8.55;4.93;;;410.50;1024.00;;;;;;4957905;28;20027;-73
2021/04/09 11:53:40;;;;;;;14.85;8.85;;;410.30;998.40;;;;;;4957778;28;20027;-73
2021/04/09 11:56:06;;;;;;;17.02;9.43;;;435.80;1075.20;;;;;;4975649;28;20023;-75
2021/04/09 11:58:42;;;;;;;12.88;6.63;;;460.80;1024.00;;;;;;4975662;28;20062;-74
2021/04/09 12:01:08;;;;;;;13.13;5.82;;;461.10;998.40;;;;;;4974955;28;20061;-73
2021/04/09 12:03:41;;;;;;;12.82;9.13;;;436.10;972.80;;;;;;4975565;28;20026;-73
2021/04/09 12:06:14;;;;;;;8.82;5.22;;;461.10;1024.00;;;;;;4958744;28;20027;-73
2021/04/09 12:08:41;;;;;;;9.48;6.45;;;461.40;998.40;;;;;;4959691;28;20362;-73
2021/04/09 12:11:08;;;;;;;11.35;6.55;;;461.60;972.80;;;;;;4974950;28;20031;-73
2021/04/09 12:13:45;;;;;;;13.80;7.80;;;461.50;921.60;;;;;;4995700;28;20486;-73
2021/04/09 12:16:11;;;;;;;9.80;6.60;;;461.70;972.80;;;;;;4995777;28;20025;-73
2021/04/09 12:18:36;;;;;;;13.57;6.80;;;461.60;1024.00;;;;;;4976227;28;20038;-74
2021/04/09 12:21:02;;;;;;;12.48;6.97;;;486.40;947.20;;;;;;4995944;28;20526;-74